sensor_id;sensor_type;location;lat;lon;timestamp;P1;durP1;ratioP1;P2;durP2;ratioP2
80868;SDS011;70295;40.182;44.498;2023-11-19T00:01:21;11.2;;;6.9;;
80868;SDS011;70295;40.182;44.498;2023-11-19T00:03:21;10.6;;;6.3;;
80868;SDS011;70295;40.182;44.498;2023-11-19T00:05:21;10.5;;;6.2;;
80868;SDS011;70295;40.182;44.498;2023-11-19T00:07:21;12.3;;;7;;
80868;SDS011;70295;40.182;44.498;2023-11-19T00:09:21;10.5;;;6.2;;
80868;SDS011;70295;40.182;44.498;2023-11-19T00:11:21;11;;;5.8;;
80868;SDS011;70295;40.182;44.498;2023-11-19T00:13:21;11.2;;;6.3;;
80868;SDS011;70295;40.182;44.498;2023-11-19T00:15:21;10.9;;;6.1;;
80868;SDS011;70295;40.182;44.498;2023-11-19T00:17:21;11.3;;;6.3;;
80868;SDS011;70295;40.182;44.498;2023-11-19T00:19:21;10;;;6.3;;
80868;SDS011;70295;40.182;44.498;2023-11-19T00:21:21;11.3;;;5.9;;
80868;SDS011;70295;40.182;44.498;2023-11-19T00:23:21;12.5;;;6.3;;
80868;SDS011;70295;40.182;44.498;2023-11-19T00:25:21;10;;;6.1;;
80868;SDS011;70295;40.182;44.498;2023-11-19T00:27:21;12.6;;;6.4;;
80868;SDS011;70295;40.182;44.498;2023-11-19T00:29:21;9.6;;;6.2;;
80868;SDS011;70295;40.182;44.498;2023-11-19T00:31:21;11.4;;;5.6;;
80868;SDS011;70295;40.182;44.498;2023-11-19T00:33:21;11.9;;;6.1;;
80868;SDS011;70295;40.182;44.498;2023-11-19T00:35:21;12.3;;;5.6;;
80868;SDS011;70295;40.182;44.498;2023-11-19T00:37:21;13.3;;;5.9;;
80868;SDS011;70295;40.182;44.498;2023-11-19T00:39:21;10.1;;;5.4;;
80868;SDS011;70295;40.182;44.498;2023-11-19T00:41:21;12.1;;;5.8;;
80868;SDS011;70295;40.182;44.498;2023-11-19T00:43:21;12.4;;;5.7;;
80868;SDS011;70295;40.182;44.498;2023-11-19T00:45:21;11.7;;;5.8;;
80868;SDS011;70295;40.182;44.498;2023-11-19T00:47:20;10.9;;;6.2;;
80868;SDS011;70295;40.182;44.498;2023-11-19T00:49:20;12;;;6.2;;
80868;SDS011;70295;40.182;44.498;2023-11-19T00:51:20;11;;;5.8;;
80868;SDS011;70295;40.182;44.498;2023-11-19T00:53:21;12.8;;;5.8;;
80868;SDS011;70295;40.182;44.498;2023-11-19T00:55:20;11.1;;;6.2;;
80868;SDS011;70295;40.182;44.498;2023-11-19T00:57:20;12.2;;;6.3;;
80868;SDS011;70295;40.182;44.498;2023-11-19T00:59:21;12.6;;;6.3;;
80868;SDS011;70295;40.182;44.498;2023-11-19T01:01:20;11.1;;;5.7;;
80868;SDS011;70295;40.182;44.498;2023-11-19T01:03:20;12.2;;;6.4;;
80868;SDS011;70295;40.182;44.498;2023-11-19T01:05:21;11.7;;;6.2;;
80868;SDS011;70295;40.182;44.498;2023-11-19T01:07:21;12.1;;;6.4;;
80868;SDS011;70295;40.182;44.498;2023-11-19T01:09:20;11.5;;;6.1;;
80868;SDS011;70295;40.182;44.498;2023-11-19T01:11:21;12.9;;;6.1;;
80868;SDS011;70295;40.182;44.498;2023-11-19T01:13:20;10.9;;;5.8;;
80868;SDS011;70295;40.182;44.498;2023-11-19T01:15:20;9.9;;;5.4;;
80868;SDS011;70295;40.182;44.498;2023-11-19T01:17:20;11;;;5.8;;
80868;SDS011;70295;40.182;44.498;2023-11-19T01:19:23;9.3;;;5.7;;
80868;SDS011;70295;40.182;44.498;2023-11-19T01:21:20;10.7;;;6.5;;
80868;SDS011;70295;40.182;44.498;2023-11-19T01:23:20;11.4;;;5.9;;
80868;SDS011;70295;40.182;44.498;2023-11-19T01:25:20;10.2;;;5.8;;
80868;SDS011;70295;40.182;44.498;2023-11-19T01:27:20;10.9;;;5.9;;
80868;SDS011;70295;40.182;44.498;2023-11-19T01:29:20;10.4;;;5.8;;
80868;SDS011;70295;40.182;44.498;2023-11-19T01:31:21;10.9;;;5.8;;
80868;SDS011;70295;40.182;44.498;2023-11-19T01:33:20;11.4;;;6;;
80868;SDS011;70295;40.182;44.498;2023-11-19T01:35:20;11.4;;;5.8;;
80868;SDS011;70295;40.182;44.498;2023-11-19T01:37:20;10.8;;;5.9;;
80868;SDS011;70295;40.182;44.498;2023-11-19T01:39:20;12.7;;;6.7;;
80868;SDS011;70295;40.182;44.498;2023-11-19T01:41:20;10.2;;;6.4;;
80868;SDS011;70295;40.182;44.498;2023-11-19T01:45:28;10.9;;;5.6;;
80868;SDS011;70295;40.182;44.498;2023-11-19T01:47:21;10.7;;;5.5;;
80868;SDS011;70295;40.182;44.498;2023-11-19T01:49:20;10.9;;;5.9;;
80868;SDS011;70295;40.182;44.498;2023-11-19T01:51:21;11.7;;;6;;
80868;SDS011;70295;40.182;44.498;2023-11-19T01:53:20;11;;;6.5;;
80868;SDS011;70295;40.182;44.498;2023-11-19T01:55:21;11.6;;;6.5;;
80868;SDS011;70295;40.182;44.498;2023-11-19T01:57:22;10.6;;;5.9;;
80868;SDS011;70295;40.182;44.498;2023-11-19T01:59:20;11.2;;;5.8;;
80868;SDS011;70295;40.182;44.498;2023-11-19T02:01:20;12.2;;;5.9;;
80868;SDS011;70295;40.182;44.498;2023-11-19T02:03:21;10.4;;;6.2;;
80868;SDS011;70295;40.182;44.498;2023-11-19T02:05:21;11.7;;;6;;
80868;SDS011;70295;40.182;44.498;2023-11-19T02:07:20;10.3;;;6;;
80868;SDS011;70295;40.182;44.498;2023-11-19T02:09:20;9.6;;;5.6;;
80868;SDS011;70295;40.182;44.498;2023-11-19T02:11:20;13.3;;;5.9;;
80868;SDS011;70295;40.182;44.498;2023-11-19T02:13:20;12;;;6.1;;
80868;SDS011;70295;40.182;44.498;2023-11-19T02:15:20;13;;;6.6;;
80868;SDS011;70295;40.182;44.498;2023-11-19T02:17:28;11.7;;;5.7;;
80868;SDS011;70295;40.182;44.498;2023-11-19T02:19:20;10.3;;;5.8;;
80868;SDS011;70295;40.182;44.498;2023-11-19T02:21:20;11.7;;;5.4;;
80868;SDS011;70295;40.182;44.498;2023-11-19T02:23:21;10;;;5.2;;
80868;SDS011;70295;40.182;44.498;2023-11-19T02:25:27;9.1;;;5.6;;
80868;SDS011;70295;40.182;44.498;2023-11-19T02:29:20;9.5;;;5.2;;
80868;SDS011;70295;40.182;44.498;2023-11-19T02:31:20;10.1;;;5.2;;
80868;SDS011;70295;40.182;44.498;2023-11-19T02:33:20;9.5;;;5.4;;
80868;SDS011;70295;40.182;44.498;2023-11-19T02:35:20;12.7;;;5.8;;
80868;SDS011;70295;40.182;44.498;2023-11-19T02:37:20;11.7;;;5.1;;
80868;SDS011;70295;40.182;44.498;2023-11-19T02:39:20;10.3;;;5;;
80868;SDS011;70295;40.182;44.498;2023-11-19T02:41:20;10.9;;;5.4;;
80868;SDS011;70295;40.182;44.498;2023-11-19T02:43:20;8.8;;;4.6;;
80868;SDS011;70295;40.182;44.498;2023-11-19T02:45:23;8.8;;;4.8;;
80868;SDS011;70295;40.182;44.498;2023-11-19T02:47:20;7.8;;;4.6;;
80868;SDS011;70295;40.182;44.498;2023-11-19T02:49:20;7.3;;;4.2;;
80868;SDS011;70295;40.182;44.498;2023-11-19T02:51:20;7.2;;;3.7;;
80868;SDS011;70295;40.182;44.498;2023-11-19T02:53:20;8.6;;;4;;
80868;SDS011;70295;40.182;44.498;2023-11-19T02:55:20;6.6;;;3.6;;
80868;SDS011;70295;40.182;44.498;2023-11-19T02:57:20;8.6;;;3.9;;
80868;SDS011;70295;40.182;44.498;2023-11-19T02:59:21;7.5;;;4.4;;
80868;SDS011;70295;40.182;44.498;2023-11-19T03:01:24;9;;;4.5;;
80868;SDS011;70295;40.182;44.498;2023-11-19T03:03:21;8.3;;;4.1;;
80868;SDS011;70295;40.182;44.498;2023-11-19T03:05:20;5.9;;;3.8;;
80868;SDS011;70295;40.182;44.498;2023-11-19T03:07:23;8;;;4.3;;
80868;SDS011;70295;40.182;44.498;2023-11-19T03:09:20;6.9;;;4;;
80868;SDS011;70295;40.182;44.498;2023-11-19T03:11:20;7.1;;;4.1;;
80868;SDS011;70295;40.182;44.498;2023-11-19T03:13:20;7.3;;;3.7;;
80868;SDS011;70295;40.182;44.498;2023-11-19T03:15:20;7.5;;;4.1;;
80868;SDS011;70295;40.182;44.498;2023-11-19T03:17:20;7.6;;;4;;
80868;SDS011;70295;40.182;44.498;2023-11-19T03:19:20;6.1;;;3.9;;
80868;SDS011;70295;40.182;44.498;2023-11-19T03:21:28;6.8;;;3.8;;
80868;SDS011;70295;40.182;44.498;2023-11-19T03:23:20;6.5;;;4.3;;
80868;SDS011;70295;40.182;44.498;2023-11-19T03:25:20;8.5;;;4.2;;
80868;SDS011;70295;40.182;44.498;2023-11-19T03:27:20;7.2;;;3.9;;
80868;SDS011;70295;40.182;44.498;2023-11-19T03:29:20;6.2;;;3.9;;
80868;SDS011;70295;40.182;44.498;2023-11-19T03:31:20;8.2;;;4.2;;
80868;SDS011;70295;40.182;44.498;2023-11-19T03:33:20;8.2;;;4.5;;
80868;SDS011;70295;40.182;44.498;2023-11-19T03:35:20;8.6;;;4.8;;
80868;SDS011;70295;40.182;44.498;2023-11-19T03:37:20;7;;;4.2;;
80868;SDS011;70295;40.182;44.498;2023-11-19T03:39:20;8.6;;;4.9;;
80868;SDS011;70295;40.182;44.498;2023-11-19T03:41:20;10.2;;;4.8;;
80868;SDS011;70295;40.182;44.498;2023-11-19T03:43:20;9.4;;;4.6;;
80868;SDS011;70295;40.182;44.498;2023-11-19T03:45:20;8.7;;;4.7;;
80868;SDS011;70295;40.182;44.498;2023-11-19T03:47:20;9;;;4.8;;
80868;SDS011;70295;40.182;44.498;2023-11-19T03:49:20;9.2;;;4.3;;
80868;SDS011;70295;40.182;44.498;2023-11-19T03:51:20;8.1;;;4.9;;
80868;SDS011;70295;40.182;44.498;2023-11-19T03:53:20;10.6;;;5.7;;
80868;SDS011;70295;40.182;44.498;2023-11-19T03:55:20;8.2;;;5;;
80868;SDS011;70295;40.182;44.498;2023-11-19T03:57:21;9.3;;;4.5;;
80868;SDS011;70295;40.182;44.498;2023-11-19T03:59:20;10.8;;;5.3;;
80868;SDS011;70295;40.182;44.498;2023-11-19T04:01:20;9.1;;;5;;
80868;SDS011;70295;40.182;44.498;2023-11-19T04:03:20;8.6;;;5.3;;
80868;SDS011;70295;40.182;44.498;2023-11-19T04:05:20;9.4;;;5.6;;
80868;SDS011;70295;40.182;44.498;2023-11-19T04:07:20;10.6;;;5.6;;
80868;SDS011;70295;40.182;44.498;2023-11-19T04:09:20;8.8;;;5.4;;
80868;SDS011;70295;40.182;44.498;2023-11-19T04:11:20;9.8;;;5.9;;
80868;SDS011;70295;40.182;44.498;2023-11-19T04:13:20;12.1;;;5.4;;
80868;SDS011;70295;40.182;44.498;2023-11-19T04:15:20;10.1;;;6.3;;
80868;SDS011;70295;40.182;44.498;2023-11-19T04:17:20;11.4;;;5.8;;
80868;SDS011;70295;40.182;44.498;2023-11-19T04:19:20;10.8;;;5.5;;
80868;SDS011;70295;40.182;44.498;2023-11-19T04:21:20;9.6;;;5.5;;
80868;SDS011;70295;40.182;44.498;2023-11-19T04:23:20;10.6;;;5.9;;
80868;SDS011;70295;40.182;44.498;2023-11-19T04:25:20;10.1;;;5.3;;
80868;SDS011;70295;40.182;44.498;2023-11-19T04:27:20;10.2;;;5.1;;
80868;SDS011;70295;40.182;44.498;2023-11-19T04:29:20;11.8;;;6.1;;
80868;SDS011;70295;40.182;44.498;2023-11-19T04:31:20;11.2;;;5.8;;
80868;SDS011;70295;40.182;44.498;2023-11-19T04:33:20;12.5;;;6.5;;
80868;SDS011;70295;40.182;44.498;2023-11-19T04:35:20;11.3;;;6;;
80868;SDS011;70295;40.182;44.498;2023-11-19T04:37:20;10.5;;;6.5;;
80868;SDS011;70295;40.182;44.498;2023-11-19T04:39:20;14.1;;;7;;
80868;SDS011;70295;40.182;44.498;2023-11-19T04:41:20;11.6;;;6.3;;
80868;SDS011;70295;40.182;44.498;2023-11-19T04:43:20;9.9;;;5.5;;
80868;SDS011;70295;40.182;44.498;2023-11-19T04:45:20;11;;;7.4;;
80868;SDS011;70295;40.182;44.498;2023-11-19T04:47:20;13.9;;;9.3;;
80868;SDS011;70295;40.182;44.498;2023-11-19T04:49:20;10.4;;;6.7;;
80868;SDS011;70295;40.182;44.498;2023-11-19T04:51:20;11.9;;;7.2;;
80868;SDS011;70295;40.182;44.498;2023-11-19T04:53:20;11.4;;;6.4;;
80868;SDS011;70295;40.182;44.498;2023-11-19T04:55:20;8;;;5.1;;
80868;SDS011;70295;40.182;44.498;2023-11-19T04:57:20;9.5;;;5.6;;
80868;SDS011;70295;40.182;44.498;2023-11-19T04:59:20;9.3;;;5.1;;
80868;SDS011;70295;40.182;44.498;2023-11-19T05:01:20;11.7;;;6.9;;
80868;SDS011;70295;40.182;44.498;2023-11-19T05:03:20;12.7;;;8.6;;
80868;SDS011;70295;40.182;44.498;2023-11-19T05:05:20;14.8;;;8.2;;
80868;SDS011;70295;40.182;44.498;2023-11-19T05:07:20;10.2;;;6.5;;
80868;SDS011;70295;40.182;44.498;2023-11-19T05:09:20;12.2;;;6.9;;
80868;SDS011;70295;40.182;44.498;2023-11-19T05:11:20;10.8;;;6.1;;
80868;SDS011;70295;40.182;44.498;2023-11-19T05:13:20;9.4;;;5.5;;
80868;SDS011;70295;40.182;44.498;2023-11-19T05:15:20;10.7;;;6.1;;
80868;SDS011;70295;40.182;44.498;2023-11-19T05:17:20;10.1;;;5.3;;
80868;SDS011;70295;40.182;44.498;2023-11-19T05:19:20;10.3;;;5.2;;
80868;SDS011;70295;40.182;44.498;2023-11-19T05:21:20;8.3;;;5;;
80868;SDS011;70295;40.182;44.498;2023-11-19T05:23:20;11.6;;;5.5;;
80868;SDS011;70295;40.182;44.498;2023-11-19T05:25:20;9.8;;;5.1;;
80868;SDS011;70295;40.182;44.498;2023-11-19T05:27:20;14.6;;;5.3;;
80868;SDS011;70295;40.182;44.498;2023-11-19T05:29:20;9.1;;;5.3;;
80868;SDS011;70295;40.182;44.498;2023-11-19T05:31:20;12;;;5.5;;
80868;SDS011;70295;40.182;44.498;2023-11-19T05:33:20;9.3;;;5.4;;
80868;SDS011;70295;40.182;44.498;2023-11-19T05:35:20;13;;;6.2;;
80868;SDS011;70295;40.182;44.498;2023-11-19T05:37:20;11.4;;;5.8;;
80868;SDS011;70295;40.182;44.498;2023-11-19T05:39:20;17.1;;;8.1;;
80868;SDS011;70295;40.182;44.498;2023-11-19T05:41:20;12.2;;;6.8;;
80868;SDS011;70295;40.182;44.498;2023-11-19T05:43:20;10.5;;;5.7;;
80868;SDS011;70295;40.182;44.498;2023-11-19T05:45:20;10.6;;;5.6;;
80868;SDS011;70295;40.182;44.498;2023-11-19T05:47:20;10.8;;;5.2;;
80868;SDS011;70295;40.182;44.498;2023-11-19T05:49:20;11.3;;;6.1;;
80868;SDS011;70295;40.182;44.498;2023-11-19T05:51:20;11.9;;;5.4;;
80868;SDS011;70295;40.182;44.498;2023-11-19T05:53:20;10;;;5;;
80868;SDS011;70295;40.182;44.498;2023-11-19T05:55:20;8.6;;;4.9;;
80868;SDS011;70295;40.182;44.498;2023-11-19T05:57:20;8;;;5.2;;
80868;SDS011;70295;40.182;44.498;2023-11-19T05:59:20;7.2;;;4.8;;
80868;SDS011;70295;40.182;44.498;2023-11-19T06:01:20;9.1;;;4.9;;
80868;SDS011;70295;40.182;44.498;2023-11-19T06:03:20;9.1;;;5;;
80868;SDS011;70295;40.182;44.498;2023-11-19T06:05:20;7.5;;;4.4;;
80868;SDS011;70295;40.182;44.498;2023-11-19T06:07:20;10.8;;;5.9;;
80868;SDS011;70295;40.182;44.498;2023-11-19T06:09:21;12.5;;;5.7;;
80868;SDS011;70295;40.182;44.498;2023-11-19T06:11:20;9.5;;;5.5;;
80868;SDS011;70295;40.182;44.498;2023-11-19T06:13:20;9.3;;;4.9;;
80868;SDS011;70295;40.182;44.498;2023-11-19T06:15:20;9.2;;;5;;
80868;SDS011;70295;40.182;44.498;2023-11-19T06:17:20;8.4;;;5.2;;
80868;SDS011;70295;40.182;44.498;2023-11-19T06:19:20;9.2;;;5.2;;
80868;SDS011;70295;40.182;44.498;2023-11-19T06:21:20;10.6;;;5.1;;
80868;SDS011;70295;40.182;44.498;2023-11-19T06:23:20;10.3;;;5.2;;
80868;SDS011;70295;40.182;44.498;2023-11-19T06:25:20;9.8;;;4.9;;
80868;SDS011;70295;40.182;44.498;2023-11-19T06:27:21;8.5;;;4.8;;
80868;SDS011;70295;40.182;44.498;2023-11-19T06:29:20;11.4;;;5.6;;
80868;SDS011;70295;40.182;44.498;2023-11-19T06:31:20;7.7;;;5;;
80868;SDS011;70295;40.182;44.498;2023-11-19T06:33:20;12.2;;;5.8;;
80868;SDS011;70295;40.182;44.498;2023-11-19T06:35:20;10;;;6.1;;
80868;SDS011;70295;40.182;44.498;2023-11-19T06:37:20;13.2;;;6.2;;
80868;SDS011;70295;40.182;44.498;2023-11-19T06:39:20;10.4;;;5.2;;
80868;SDS011;70295;40.182;44.498;2023-11-19T06:41:20;10.2;;;5.2;;
80868;SDS011;70295;40.182;44.498;2023-11-19T06:43:20;10.9;;;5.5;;
80868;SDS011;70295;40.182;44.498;2023-11-19T06:45:20;8.6;;;5;;
80868;SDS011;70295;40.182;44.498;2023-11-19T06:47:20;12.5;;;4.5;;
80868;SDS011;70295;40.182;44.498;2023-11-19T06:49:20;5.3;;;4.1;;
80868;SDS011;70295;40.182;44.498;2023-11-19T06:51:20;5.6;;;4.3;;
80868;SDS011;70295;40.182;44.498;2023-11-19T06:53:20;8.1;;;4.2;;
80868;SDS011;70295;40.182;44.498;2023-11-19T06:55:20;6.7;;;4.3;;
80868;SDS011;70295;40.182;44.498;2023-11-19T06:57:20;10.4;;;4.8;;
80868;SDS011;70295;40.182;44.498;2023-11-19T06:59:20;5.8;;;4;;
80868;SDS011;70295;40.182;44.498;2023-11-19T07:01:20;6.2;;;4.2;;
80868;SDS011;70295;40.182;44.498;2023-11-19T07:03:20;7.4;;;4.2;;
80868;SDS011;70295;40.182;44.498;2023-11-19T07:05:20;18.4;;;4.2;;
80868;SDS011;70295;40.182;44.498;2023-11-19T07:07:20;15.9;;;4.2;;
80868;SDS011;70295;40.182;44.498;2023-11-19T07:09:20;8.5;;;4.5;;
80868;SDS011;70295;40.182;44.498;2023-11-19T07:11:20;8.2;;;4.2;;
80868;SDS011;70295;40.182;44.498;2023-11-19T07:13:20;6.1;;;3.8;;
80868;SDS011;70295;40.182;44.498;2023-11-19T07:15:20;8.2;;;4;;
80868;SDS011;70295;40.182;44.498;2023-11-19T07:17:20;10.7;;;5;;
80868;SDS011;70295;40.182;44.498;2023-11-19T07:19:20;6.5;;;3.5;;
80868;SDS011;70295;40.182;44.498;2023-11-19T07:21:20;10.1;;;4.7;;
80868;SDS011;70295;40.182;44.498;2023-11-19T07:23:20;9.1;;;4.9;;
80868;SDS011;70295;40.182;44.498;2023-11-19T07:25:20;10.7;;;5;;
80868;SDS011;70295;40.182;44.498;2023-11-19T07:27:20;8.8;;;4.6;;
80868;SDS011;70295;40.182;44.498;2023-11-19T07:29:20;9.5;;;4.3;;
80868;SDS011;70295;40.182;44.498;2023-11-19T07:31:20;7.8;;;4.4;;
80868;SDS011;70295;40.182;44.498;2023-11-19T07:33:20;10.2;;;4.4;;
80868;SDS011;70295;40.182;44.498;2023-11-19T07:35:20;6.9;;;4.2;;
80868;SDS011;70295;40.182;44.498;2023-11-19T07:37:20;10.1;;;4.3;;
80868;SDS011;70295;40.182;44.498;2023-11-19T07:39:20;22.9;;;4.8;;
80868;SDS011;70295;40.182;44.498;2023-11-19T07:41:20;7.9;;;3.9;;
80868;SDS011;70295;40.182;44.498;2023-11-19T07:43:20;7.2;;;4;;
80868;SDS011;70295;40.182;44.498;2023-11-19T07:45:20;9.2;;;4.5;;
80868;SDS011;70295;40.182;44.498;2023-11-19T07:47:20;9.2;;;4.2;;
80868;SDS011;70295;40.182;44.498;2023-11-19T07:49:20;8.1;;;4.1;;
80868;SDS011;70295;40.182;44.498;2023-11-19T07:51:20;9.5;;;4.4;;
80868;SDS011;70295;40.182;44.498;2023-11-19T07:53:20;6.1;;;4;;
80868;SDS011;70295;40.182;44.498;2023-11-19T07:55:20;16.2;;;5.1;;
80868;SDS011;70295;40.182;44.498;2023-11-19T07:57:20;9.9;;;4.4;;
80868;SDS011;70295;40.182;44.498;2023-11-19T07:59:20;8;;;4.3;;
80868;SDS011;70295;40.182;44.498;2023-11-19T08:01:20;12.2;;;5.1;;
80868;SDS011;70295;40.182;44.498;2023-11-19T08:03:20;8.8;;;4.6;;
80868;SDS011;70295;40.182;44.498;2023-11-19T08:05:20;7.9;;;4.3;;
80868;SDS011;70295;40.182;44.498;2023-11-19T08:07:21;8;;;4.6;;
80868;SDS011;70295;40.182;44.498;2023-11-19T08:09:20;34.5;;;6.6;;
80868;SDS011;70295;40.182;44.498;2023-11-19T08:11:20;9.2;;;4.4;;
80868;SDS011;70295;40.182;44.498;2023-11-19T08:13:20;5.6;;;3.1;;
80868;SDS011;70295;40.182;44.498;2023-11-19T08:15:20;7.1;;;4.1;;
80868;SDS011;70295;40.182;44.498;2023-11-19T08:17:20;8.8;;;4;;
80868;SDS011;70295;40.182;44.498;2023-11-19T08:19:20;43;;;6.5;;
80868;SDS011;70295;40.182;44.498;2023-11-19T08:21:20;6.9;;;4.1;;
80868;SDS011;70295;40.182;44.498;2023-11-19T08:23:20;7.2;;;4.3;;
80868;SDS011;70295;40.182;44.498;2023-11-19T08:25:20;5.9;;;3.9;;
80868;SDS011;70295;40.182;44.498;2023-11-19T08:27:20;7.1;;;4.1;;
80868;SDS011;70295;40.182;44.498;2023-11-19T08:29:20;7.4;;;4.3;;
80868;SDS011;70295;40.182;44.498;2023-11-19T08:31:20;11.1;;;4.4;;
80868;SDS011;70295;40.182;44.498;2023-11-19T08:33:20;5.9;;;4;;
80868;SDS011;70295;40.182;44.498;2023-11-19T08:35:20;8.1;;;4.6;;
80868;SDS011;70295;40.182;44.498;2023-11-19T08:37:20;7.6;;;4.6;;
80868;SDS011;70295;40.182;44.498;2023-11-19T08:39:20;7.7;;;4.2;;
80868;SDS011;70295;40.182;44.498;2023-11-19T08:41:21;10;;;4.7;;
80868;SDS011;70295;40.182;44.498;2023-11-19T08:43:20;9.7;;;3.8;;
80868;SDS011;70295;40.182;44.498;2023-11-19T08:45:20;8.8;;;4.3;;
80868;SDS011;70295;40.182;44.498;2023-11-19T08:47:20;10.7;;;4.3;;
80868;SDS011;70295;40.182;44.498;2023-11-19T08:49:20;7.6;;;4.6;;
80868;SDS011;70295;40.182;44.498;2023-11-19T08:51:20;5.9;;;4;;
80868;SDS011;70295;40.182;44.498;2023-11-19T08:53:20;8.4;;;3.9;;
80868;SDS011;70295;40.182;44.498;2023-11-19T08:55:20;5.6;;;3.3;;
80868;SDS011;70295;40.182;44.498;2023-11-19T08:57:20;6.9;;;3.2;;
80868;SDS011;70295;40.182;44.498;2023-11-19T08:59:20;7.6;;;3.6;;
80868;SDS011;70295;40.182;44.498;2023-11-19T09:01:20;6.5;;;3.6;;
80868;SDS011;70295;40.182;44.498;2023-11-19T09:03:20;7.5;;;3.3;;
80868;SDS011;70295;40.182;44.498;2023-11-19T09:05:20;6.9;;;4;;
80868;SDS011;70295;40.182;44.498;2023-11-19T09:07:20;7;;;3.4;;
80868;SDS011;70295;40.182;44.498;2023-11-19T09:09:20;6.2;;;3.7;;
80868;SDS011;70295;40.182;44.498;2023-11-19T09:11:20;7.7;;;4.1;;
80868;SDS011;70295;40.182;44.498;2023-11-19T09:13:20;7.8;;;3.7;;
80868;SDS011;70295;40.182;44.498;2023-11-19T09:15:20;7.5;;;4;;
80868;SDS011;70295;40.182;44.498;2023-11-19T09:17:20;7.8;;;4.3;;
80868;SDS011;70295;40.182;44.498;2023-11-19T09:19:20;46;;;6.3;;
80868;SDS011;70295;40.182;44.498;2023-11-19T09:21:20;5.6;;;3.3;;
80868;SDS011;70295;40.182;44.498;2023-11-19T09:23:20;7.3;;;3.8;;
80868;SDS011;70295;40.182;44.498;2023-11-19T09:25:20;7;;;4;;
80868;SDS011;70295;40.182;44.498;2023-11-19T09:27:20;6.8;;;4;;
80868;SDS011;70295;40.182;44.498;2023-11-19T09:29:20;7.2;;;3.7;;
80868;SDS011;70295;40.182;44.498;2023-11-19T09:31:20;6.1;;;3.2;;
80868;SDS011;70295;40.182;44.498;2023-11-19T09:33:20;9.6;;;4.7;;
80868;SDS011;70295;40.182;44.498;2023-11-19T09:35:20;7.3;;;4;;
80868;SDS011;70295;40.182;44.498;2023-11-19T09:37:20;6.5;;;3.9;;
80868;SDS011;70295;40.182;44.498;2023-11-19T09:39:20;7.5;;;3.7;;
80868;SDS011;70295;40.182;44.498;2023-11-19T09:41:20;12.3;;;4.4;;
80868;SDS011;70295;40.182;44.498;2023-11-19T09:43:20;7.9;;;4;;
80868;SDS011;70295;40.182;44.498;2023-11-19T09:45:21;81.7;;;10.4;;
80868;SDS011;70295;40.182;44.498;2023-11-19T09:47:20;9.1;;;3.9;;
80868;SDS011;70295;40.182;44.498;2023-11-19T09:49:21;9.3;;;4.1;;
80868;SDS011;70295;40.182;44.498;2023-11-19T09:51:20;13.6;;;5.3;;
80868;SDS011;70295;40.182;44.498;2023-11-19T09:53:20;6.6;;;3.8;;
80868;SDS011;70295;40.182;44.498;2023-11-19T09:55:20;9.9;;;5;;
80868;SDS011;70295;40.182;44.498;2023-11-19T09:57:20;9.1;;;4.2;;
80868;SDS011;70295;40.182;44.498;2023-11-19T09:59:20;11.9;;;4.3;;
80868;SDS011;70295;40.182;44.498;2023-11-19T10:01:20;8.7;;;3.9;;
80868;SDS011;70295;40.182;44.498;2023-11-19T10:03:22;7.5;;;4.1;;
80868;SDS011;70295;40.182;44.498;2023-11-19T10:05:21;6.8;;;3.6;;
80868;SDS011;70295;40.182;44.498;2023-11-19T10:07:20;7.1;;;3.6;;
80868;SDS011;70295;40.182;44.498;2023-11-19T10:09:20;3.6;;;2.9;;
80868;SDS011;70295;40.182;44.498;2023-11-19T10:11:20;8.2;;;3.7;;
80868;SDS011;70295;40.182;44.498;2023-11-19T10:13:28;5.9;;;3.2;;
80868;SDS011;70295;40.182;44.498;2023-11-19T10:15:21;7.6;;;3.3;;
80868;SDS011;70295;40.182;44.498;2023-11-19T10:17:20;6;;;3.2;;
80868;SDS011;70295;40.182;44.498;2023-11-19T10:19:20;5.9;;;2.9;;
80868;SDS011;70295;40.182;44.498;2023-11-19T10:21:20;9.3;;;3.4;;
80868;SDS011;70295;40.182;44.498;2023-11-19T10:23:20;6.2;;;2.6;;
80868;SDS011;70295;40.182;44.498;2023-11-19T10:25:27;8.8;;;3.5;;
80868;SDS011;70295;40.182;44.498;2023-11-19T10:27:20;6.1;;;3;;
80868;SDS011;70295;40.182;44.498;2023-11-19T10:29:20;5.8;;;3.2;;
80868;SDS011;70295;40.182;44.498;2023-11-19T10:31:20;6.2;;;3;;
80868;SDS011;70295;40.182;44.498;2023-11-19T10:33:20;4;;;2.5;;
80868;SDS011;70295;40.182;44.498;2023-11-19T10:35:20;3.8;;;2.6;;
80868;SDS011;70295;40.182;44.498;2023-11-19T10:37:28;8.5;;;3.3;;
80868;SDS011;70295;40.182;44.498;2023-11-19T10:39:20;7.3;;;2.6;;
80868;SDS011;70295;40.182;44.498;2023-11-19T10:43:21;4.8;;;2.6;;
80868;SDS011;70295;40.182;44.498;2023-11-19T10:45:23;5.2;;;3.3;;
80868;SDS011;70295;40.182;44.498;2023-11-19T10:47:21;5.6;;;2.5;;
80868;SDS011;70295;40.182;44.498;2023-11-19T10:49:20;5.8;;;2.4;;
80868;SDS011;70295;40.182;44.498;2023-11-19T10:51:20;5.1;;;2.8;;
80868;SDS011;70295;40.182;44.498;2023-11-19T10:53:21;4.9;;;2;;
80868;SDS011;70295;40.182;44.498;2023-11-19T10:55:26;3.4;;;2.3;;
80868;SDS011;70295;40.182;44.498;2023-11-19T10:57:21;18;;;3.6;;
80868;SDS011;70295;40.182;44.498;2023-11-19T10:59:21;4.2;;;2.2;;
80868;SDS011;70295;40.182;44.498;2023-11-19T11:01:20;4.9;;;2.2;;
80868;SDS011;70295;40.182;44.498;2023-11-19T11:03:21;4.9;;;2.8;;
80868;SDS011;70295;40.182;44.498;2023-11-19T11:05:21;5.5;;;2.8;;
80868;SDS011;70295;40.182;44.498;2023-11-19T11:07:21;5.6;;;2.3;;
80868;SDS011;70295;40.182;44.498;2023-11-19T11:09:20;4.4;;;2.1;;
80868;SDS011;70295;40.182;44.498;2023-11-19T11:11:20;4.3;;;2.1;;
80868;SDS011;70295;40.182;44.498;2023-11-19T11:13:22;4;;;2.4;;
80868;SDS011;70295;40.182;44.498;2023-11-19T11:15:21;4.5;;;2.5;;
80868;SDS011;70295;40.182;44.498;2023-11-19T11:17:24;5.4;;;2.6;;
80868;SDS011;70295;40.182;44.498;2023-11-19T11:19:20;5;;;2.6;;
80868;SDS011;70295;40.182;44.498;2023-11-19T11:21:22;6.5;;;2.4;;
80868;SDS011;70295;40.182;44.498;2023-11-19T11:25:31;5.3;;;2.2;;
80868;SDS011;70295;40.182;44.498;2023-11-19T11:39:22;5.1;;;2.7;;
80868;SDS011;70295;40.182;44.498;2023-11-19T11:41:21;3.6;;;2.2;;
80868;SDS011;70295;40.182;44.498;2023-11-19T11:47:20;3.5;;;2.2;;
80868;SDS011;70295;40.182;44.498;2023-11-19T11:49:25;4.8;;;2;;
80868;SDS011;70295;40.182;44.498;2023-11-19T11:53:21;4.9;;;2.4;;
80868;SDS011;70295;40.182;44.498;2023-11-19T11:55:24;5.1;;;2.4;;
80868;SDS011;70295;40.182;44.498;2023-11-19T11:57:20;5.4;;;2.7;;
80868;SDS011;70295;40.182;44.498;2023-11-19T11:59:20;5.3;;;2.7;;
80868;SDS011;70295;40.182;44.498;2023-11-19T12:01:20;5.3;;;2.7;;
80868;SDS011;70295;40.182;44.498;2023-11-19T12:03:21;4.6;;;2.6;;
80868;SDS011;70295;40.182;44.498;2023-11-19T12:05:21;4.3;;;2.6;;
80868;SDS011;70295;40.182;44.498;2023-11-19T12:07:24;4.7;;;3;;
80868;SDS011;70295;40.182;44.498;2023-11-19T12:09:20;5.6;;;3.2;;
80868;SDS011;70295;40.182;44.498;2023-11-19T12:11:20;5.2;;;2.5;;
80868;SDS011;70295;40.182;44.498;2023-11-19T12:13:20;4.5;;;2.6;;
80868;SDS011;70295;40.182;44.498;2023-11-19T12:15:20;3.4;;;2.1;;
80868;SDS011;70295;40.182;44.498;2023-11-19T12:19:20;9.3;;;2.8;;
80868;SDS011;70295;40.182;44.498;2023-11-19T12:23:20;5.6;;;3.2;;
80868;SDS011;70295;40.182;44.498;2023-11-19T12:25:20;5.4;;;3;;
80868;SDS011;70295;40.182;44.498;2023-11-19T12:27:20;5.9;;;2.6;;
80868;SDS011;70295;40.182;44.498;2023-11-19T12:29:20;5.6;;;2.3;;
80868;SDS011;70295;40.182;44.498;2023-11-19T12:31:20;6.9;;;2.5;;
80868;SDS011;70295;40.182;44.498;2023-11-19T12:33:20;4.7;;;2.2;;
80868;SDS011;70295;40.182;44.498;2023-11-19T12:35:20;7.1;;;3.4;;
80868;SDS011;70295;40.182;44.498;2023-11-19T12:37:20;5.9;;;3.5;;
80868;SDS011;70295;40.182;44.498;2023-11-19T12:39:20;3.9;;;2.5;;
80868;SDS011;70295;40.182;44.498;2023-11-19T12:41:20;8.1;;;3;;
80868;SDS011;70295;40.182;44.498;2023-11-19T12:43:22;5.8;;;2.9;;